Time;durP1;ratioP1;P1;durP2;ratioP2;P2;SDS_P1;SDS_P2;PMS_P1;PMS_P2;Temp;Humidity;BMP_temperature;BMP_pressure;BME280_temperature;BME280_humidity;BME280_pressure;Samples;Min_cycle;Max_cycle;Signal;HPM_P1;HPM_P2
2022/03/10 00:02:09;;;;;;;2.67;2.25;;;13.10;36.20;;;;;;5088098;28;20131;-71
2022/03/10 00:04:36;;;;;;;2.70;1.80;;;13.10;36.30;;;;;;5086814;28;20044;-71
2022/03/10 00:07:03;;;;;;;3.25;2.42;;;13.30;36.30;;;;;;5086879;28;20040;-71
2022/03/10 00:09:31;;;;;;;3.22;2.53;;;13.60;35.90;;;;;;5087119;28;20055;-71
2022/03/10 00:11:56;;;;;;;5.03;2.00;;;14.10;35.20;;;;;;5087178;28;20129;-71
2022/03/10 00:14:22;;;;;;;2.65;1.98;;;14.60;34.40;;;;;;5074694;28;20036;-71
2022/03/10 00:16:50;;;;;;;2.28;2.00;;;15.10;33.80;;;;;;5073256;28;20047;-71
2022/03/10 00:19:19;;;;;;;2.65;1.75;;;15.50;33.10;;;;;;5073407;28;20044;-71
2022/03/10 00:21:46;;;;;;;2.70;2.38;;;16.00;32.50;;;;;;5074680;28;20048;-71
2022/03/10 00:24:19;;;;;;;2.72;1.75;;;16.40;32.00;;;;;;5074845;28;20070;-71
2022/03/10 00:26:45;;;;;;;2.63;1.98;;;16.80;31.40;;;;;;5074383;28;20047;-71
2022/03/10 00:29:14;;;;;;;3.50;2.13;;;17.10;30.90;;;;;;5074268;28;20051;-71
2022/03/10 00:31:41;;;;;;;2.67;2.28;;;17.30;30.40;;;;;;5074379;28;20040;-72
2022/03/10 00:34:07;;;;;;;3.58;2.47;;;17.70;30.00;;;;;;5074119;28;20047;-72
2022/03/10 00:36:33;;;;;;;2.47;2.28;;;17.90;29.70;;;;;;5074147;28;20040;-71
2022/03/10 00:39:11;;;;;;;2.75;2.22;;;18.20;29.50;;;;;;5073158;28;20075;-71
2022/03/10 00:41:37;;;;;;;3.90;1.95;;;18.30;29.30;;;;;;5073000;28;20040;-72
2022/03/10 00:44:03;;;;;;;2.30;2.05;;;18.60;29.00;;;;;;5073397;28;20043;-72
2022/03/10 00:46:29;;;;;;;3.88;2.72;;;18.70;28.80;;;;;;5072668;28;20036;-72
2022/03/10 00:48:54;;;;;;;2.10;1.90;;;18.90;28.70;;;;;;5072800;28;20060;-72
2022/03/10 00:51:20;;;;;;;2.58;2.10;;;19.00;28.50;;;;;;5074190;28;20070;-72
2022/03/10 00:53:46;;;;;;;2.58;2.15;;;19.20;28.30;;;;;;5073942;28;20036;-72
2022/03/10 00:56:11;;;;;;;2.30;1.90;;;19.30;28.20;;;;;;5072512;28;20060;-72
2022/03/10 00:58:37;;;;;;;2.63;1.95;;;19.40;28.10;;;;;;5073800;28;20043;-71
2022/03/10 01:01:03;;;;;;;3.65;2.10;;;19.50;28.00;;;;;;5073390;28;20032;-72
2022/03/10 01:03:28;;;;;;;3.13;2.38;;;19.60;27.90;;;;;;5073400;28;20378;-71
2022/03/10 01:05:54;;;;;;;2.97;2.30;;;19.70;27.80;;;;;;5073780;28;20086;-73
2022/03/10 01:08:20;;;;;;;2.60;1.83;;;19.80;27.60;;;;;;5072381;28;20051;-71
2022/03/10 01:10:45;;;;;;;3.10;2.15;;;19.90;27.60;;;;;;5072253;28;20040;-71
2022/03/10 01:13:15;;;;;;;4.55;2.28;;;20.00;27.50;;;;;;5072278;28;20115;-72
2022/03/10 01:15:41;;;;;;;2.75;2.13;;;20.00;27.40;;;;;;5072269;28;20049;-72
2022/03/10 01:18:08;;;;;;;3.28;2.40;;;20.10;27.40;;;;;;5072302;28;20388;-72
2022/03/10 01:20:34;;;;;;;2.72;2.45;;;20.20;27.90;;;;;;5072035;28;20504;-71
2022/03/10 01:22:59;;;;;;;2.40;2.05;;;20.20;27.20;;;;;;5073448;28;20119;-71
2022/03/10 01:25:25;;;;;;;3.15;2.00;;;20.30;27.20;;;;;;5072210;28;20454;-72
2022/03/10 01:27:51;;;;;;;2.17;1.98;;;20.30;27.10;;;;;;5072136;28;20045;-72
2022/03/10 01:30:16;;;;;;;2.30;2.00;;;20.40;27.00;;;;;;5072123;28;20032;-72
2022/03/10 01:32:42;;;;;;;3.00;2.40;;;20.50;27.00;;;;;;5071800;28;20041;-72
2022/03/10 01:35:08;;;;;;;2.22;2.03;;;20.50;26.90;;;;;;5071657;28;20048;-72
2022/03/10 01:37:37;;;;;;;2.70;2.30;;;20.50;26.90;;;;;;5071680;28;20044;-72
2022/03/10 01:40:04;;;;;;;2.85;2.65;;;20.60;26.80;;;;;;5071937;28;20040;-72
2022/03/10 01:42:33;;;;;;;2.88;2.42;;;20.60;26.80;;;;;;5073109;28;20044;-73
2022/03/10 01:44:59;;;;;;;2.40;2.10;;;20.70;26.70;;;;;;5073146;28;20040;-72
2022/03/10 01:47:25;;;;;;;2.63;2.42;;;20.70;26.70;;;;;;5071654;28;20043;-73
2022/03/10 01:49:50;;;;;;;2.38;2.17;;;20.80;26.60;;;;;;5071717;28;20113;-72
2022/03/10 01:52:18;;;;;;;2.38;2.10;;;20.80;26.50;;;;;;5070692;28;20438;-72
2022/03/10 01:54:46;;;;;;;3.47;1.98;;;20.90;26.60;;;;;;5071506;28;20044;-72
2022/03/10 01:57:12;;;;;;;4.78;2.58;;;20.90;26.60;;;;;;5072651;28;20040;-72
2022/03/10 01:59:39;;;;;;;3.78;2.30;;;20.90;26.50;;;;;;5072553;28;20086;-72
2022/03/10 02:02:06;;;;;;;3.42;2.55;;;21.00;26.40;;;;;;5072080;28;20055;-72
2022/03/10 02:04:31;;;;;;;3.38;2.83;;;21.00;26.40;;;;;;5071095;28;20094;-72
2022/03/10 02:06:59;;;;;;;3.42;3.10;;;21.00;26.40;;;;;;5070298;28;20040;-72
2022/03/10 02:12:10;;;;;;;3.35;2.33;;;21.10;26.30;;;;;;5071107;28;20056;-72
2022/03/10 02:17:22;;;;;;;2.28;2.08;;;21.20;26.20;;;;;;5071465;28;20056;-72
2022/03/10 02:19:51;;;;;;;3.63;2.90;;;21.20;26.20;;;;;;5072696;28;20048;-72
2022/03/10 02:22:18;;;;;;;2.70;2.35;;;21.30;26.20;;;;;;5070992;28;20150;-71
2022/03/10 02:24:44;;;;;;;3.38;2.67;;;21.30;26.10;;;;;;5070930;28;20126;-72
2022/03/10 02:27:22;;;;;;;3.33;2.88;;;21.30;26.10;;;;;;5070970;28;20044;-72
2022/03/10 02:29:50;;;;;;;3.55;2.22;;;21.40;26.20;;;;;;5071072;28;20040;-72
2022/03/10 02:32:17;;;;;;;2.72;2.45;;;21.40;26.10;;;;;;5070853;28;20048;-72
2022/03/10 02:34:44;;;;;;;2.75;2.45;;;21.40;26.10;;;;;;5070785;28;20044;-72
2022/03/10 02:37:10;;;;;;;2.60;2.40;;;21.40;26.00;;;;;;5071993;28;20040;-73
2022/03/10 02:39:37;;;;;;;3.28;2.30;;;21.50;26.00;;;;;;5072182;28;20048;-73
2022/03/10 02:42:10;;;;;;;2.95;2.65;;;21.50;26.00;;;;;;5054385;28;20044;-72
2022/03/10 02:44:41;;;;;;;3.03;2.28;;;21.50;26.00;;;;;;5070863;28;20086;-72
2022/03/10 02:47:07;;;;;;;3.00;2.20;;;21.60;26.00;;;;;;5072053;28;20392;-72
2022/03/10 02:49:33;;;;;;;3.85;2.80;;;21.60;26.00;;;;;;5071921;28;20062;-72
2022/03/10 02:51:58;;;;;;;3.05;2.72;;;21.60;25.90;;;;;;5070855;28;20040;-72
2022/03/10 02:54:24;;;;;;;3.13;2.22;;;21.60;25.90;;;;;;5070549;28;20047;-72
2022/03/10 02:56:49;;;;;;;2.97;2.78;;;21.70;25.90;;;;;;5071715;28;20123;-72
2022/03/10 02:59:21;;;;;;;2.85;2.38;;;21.70;25.90;;;;;;5071361;28;20468;-72
2022/03/10 03:01:47;;;;;;;2.53;2.17;;;21.60;25.80;;;;;;5070287;28;20052;-72
2022/03/10 03:04:12;;;;;;;3.03;2.72;;;21.60;25.90;;;;;;5070348;28;20388;-72
2022/03/10 03:06:38;;;;;;;2.83;2.63;;;21.60;25.90;;;;;;5069984;28;20037;-72
2022/03/10 03:09:04;;;;;;;3.08;2.47;;;21.60;25.90;;;;;;5071410;28;20500;-73
2022/03/10 03:11:29;;;;;;;3.55;2.58;;;21.60;25.90;;;;;;5070578;28;20048;-72
2022/03/10 03:13:56;;;;;;;3.20;2.42;;;21.60;25.90;;;;;;5070557;28;20388;-72
2022/03/10 03:16:24;;;;;;;2.70;2.50;;;21.70;25.90;;;;;;5070368;28;20036;-72
2022/03/10 03:18:49;;;;;;;3.22;2.92;;;21.70;25.80;;;;;;5069994;28;20068;-72
2022/03/10 03:21:15;;;;;;;4.13;3.22;;;21.70;25.70;;;;;;5071468;28;20084;-72
2022/03/10 03:23:40;;;;;;;2.65;2.45;;;21.80;25.70;;;;;;5070269;28;20476;-72
2022/03/10 03:26:06;;;;;;;3.00;2.80;;;21.90;25.70;;;;;;5070172;28;20040;-72
2022/03/10 03:28:32;;;;;;;3.42;3.03;;;21.90;25.70;;;;;;5070396;28;20064;-72
2022/03/10 03:30:57;;;;;;;3.25;2.88;;;22.00;25.70;;;;;;5071640;28;20442;-72
2022/03/10 03:33:23;;;;;;;3.05;2.25;;;22.00;25.60;;;;;;5070208;28;20071;-72
2022/03/10 03:35:49;;;;;;;4.60;2.88;;;22.00;25.60;;;;;;5070046;28;20094;-72
2022/03/10 03:38:14;;;;;;;3.03;2.67;;;22.00;25.50;;;;;;5070422;28;20044;-72
2022/03/10 03:40:40;;;;;;;2.50;2.30;;;22.10;25.50;;;;;;5070291;28;20055;-73
2022/03/10 03:43:06;;;;;;;3.40;3.10;;;22.10;25.50;;;;;;5071199;28;20040;-72
2022/03/10 03:45:32;;;;;;;3.97;2.58;;;22.10;25.50;;;;;;5071316;28;20028;-73
2022/03/10 03:47:57;;;;;;;3.10;2.80;;;22.10;25.50;;;;;;5070715;28;20127;-72
2022/03/10 03:50:23;;;;;;;2.80;2.60;;;22.20;25.40;;;;;;5074987;28;20076;-72
2022/03/10 03:52:49;;;;;;;3.45;3.15;;;22.10;25.40;;;;;;5073790;28;20423;-72
2022/03/10 03:55:15;;;;;;;2.88;2.55;;;22.20;25.40;;;;;;5073581;28;20059;-73
2022/03/10 03:57:41;;;;;;;3.35;2.78;;;22.20;25.40;;;;;;5073189;28;20488;-72
2022/03/10 04:00:08;;;;;;;2.78;2.58;;;22.20;25.40;;;;;;5073764;28;20170;-73
2022/03/10 04:02:35;;;;;;;2.67;2.47;;;22.20;25.30;;;;;;5074543;28;20135;-72
2022/03/10 04:05:01;;;;;;;2.70;2.47;;;22.30;25.40;;;;;;5073684;28;20073;-73
2022/03/10 04:07:27;;;;;;;2.65;2.45;;;22.30;25.30;;;;;;5073488;28;20040;-72
2022/03/10 04:09:52;;;;;;;2.88;2.67;;;22.30;25.30;;;;;;5074799;28;20094;-72
2022/03/10 04:12:18;;;;;;;3.00;2.80;;;22.30;25.30;;;;;;5072720;28;20051;-73
2022/03/10 04:14:44;;;;;;;3.05;2.63;;;22.40;25.30;;;;;;5074567;28;20032;-72
2022/03/10 04:17:09;;;;;;;3.42;2.90;;;22.40;25.30;;;;;;5073750;28;20055;-72
2022/03/10 04:19:35;;;;;;;2.92;2.72;;;22.40;25.20;;;;;;5073556;28;20082;-72
2022/03/10 04:22:01;;;;;;;2.97;2.30;;;22.40;25.20;;;;;;5074377;28;20051;-72
2022/03/10 04:24:26;;;;;;;2.85;2.60;;;22.40;25.20;;;;;;5073426;28;20047;-72
2022/03/10 04:26:52;;;;;;;3.22;2.92;;;22.40;25.10;;;;;;5073099;28;20036;-72
2022/03/10 04:29:18;;;;;;;2.85;2.42;;;22.50;25.10;;;;;;5073240;28;20076;-72
2022/03/10 04:31:46;;;;;;;3.90;2.97;;;22.50;25.10;;;;;;5073288;28;20126;-72
2022/03/10 04:34:12;;;;;;;3.03;2.70;;;22.50;25.10;;;;;;5073075;28;20123;-73
2022/03/10 04:36:37;;;;;;;4.13;2.58;;;22.50;25.10;;;;;;5073398;28;20037;-72
2022/03/10 04:39:04;;;;;;;3.67;2.85;;;22.50;25.10;;;;;;5074299;28;20539;-73
2022/03/10 04:41:30;;;;;;;3.63;3.22;;;22.60;25.10;;;;;;5074288;28;20086;-74
2022/03/10 04:43:56;;;;;;;2.80;2.50;;;22.50;25.00;;;;;;5072865;28;20040;-72
2022/03/10 04:46:22;;;;;;;2.95;2.65;;;22.60;25.00;;;;;;5072411;28;20032;-72
2022/03/10 04:48:48;;;;;;;2.47;2.28;;;22.60;25.00;;;;;;5074034;28;20551;-73
2022/03/10 04:51:14;;;;;;;3.08;2.78;;;22.70;25.00;;;;;;5072714;28;20043;-73
2022/03/10 04:53:42;;;;;;;2.72;2.30;;;22.70;25.00;;;;;;5072617;28;20049;-72
2022/03/10 04:56:08;;;;;;;3.22;2.78;;;22.60;25.00;;;;;;5072873;28;20480;-72
2022/03/10 04:58:34;;;;;;;3.13;2.70;;;22.70;25.00;;;;;;5072393;28;20047;-72
2022/03/10 05:01:00;;;;;;;3.63;3.33;;;22.70;25.00;;;;;;5072495;28;20059;-73
2022/03/10 05:03:25;;;;;;;2.83;2.63;;;22.70;24.90;;;;;;5072284;28;20041;-72
2022/03/10 05:05:51;;;;;;;2.45;2.25;;;22.70;24.90;;;;;;5072657;28;20036;-72
2022/03/10 05:08:16;;;;;;;3.15;2.95;;;22.80;24.90;;;;;;5072609;28;20085;-72
2022/03/10 05:10:42;;;;;;;3.47;3.00;;;22.80;24.90;;;;;;5073619;28;20576;-73
2022/03/10 05:13:08;;;;;;;2.83;2.63;;;22.80;24.90;;;;;;5072279;28;20127;-73
2022/03/10 05:15:33;;;;;;;2.90;2.60;;;22.90;24.90;;;;;;5072534;28;20036;-72
2022/03/10 05:18:01;;;;;;;2.72;2.53;;;23.00;24.80;;;;;;5073498;28;20062;-72
2022/03/10 05:20:31;;;;;;;3.83;2.70;;;23.00;24.80;;;;;;5072456;28;20044;-72
2022/03/10 05:23:00;;;;;;;3.17;2.92;;;23.10;24.70;;;;;;5073195;28;20048;-73
2022/03/10 05:25:32;;;;;;;2.70;2.50;;;23.20;24.70;;;;;;5072308;28;20164;-72
2022/03/10 05:27:58;;;;;;;4.18;3.28;;;23.30;24.60;;;;;;5073103;28;20110;-73
2022/03/10 05:30:24;;;;;;;3.55;2.63;;;23.40;24.60;;;;;;5073727;28;20147;-72
2022/03/10 05:32:50;;;;;;;3.35;3.05;;;23.50;24.40;;;;;;5071900;28;20052;-72
2022/03/10 05:35:17;;;;;;;2.83;2.63;;;23.50;24.40;;;;;;5072082;28;20048;-72
2022/03/10 05:37:45;;;;;;;2.20;2.00;;;23.70;24.30;;;;;;5072514;28;20045;-73
2022/03/10 05:40:13;;;;;;;2.47;2.28;;;23.70;24.30;;;;;;5072870;28;20079;-74
2022/03/10 05:42:40;;;;;;;3.15;2.80;;;23.80;24.20;;;;;;5071527;28;20072;-72
2022/03/10 05:45:10;;;;;;;2.80;2.60;;;23.90;24.10;;;;;;5072787;28;20484;-72
2022/03/10 05:47:36;;;;;;;3.08;2.58;;;24.00;24.10;;;;;;5070905;28;20044;-72
2022/03/10 05:50:07;;;;;;;2.40;2.20;;;24.00;24.00;;;;;;5071536;28;20040;-72
2022/03/10 05:52:33;;;;;;;2.80;2.58;;;24.10;24.00;;;;;;5071375;28;20037;-72
2022/03/10 05:54:59;;;;;;;2.90;2.42;;;24.10;23.90;;;;;;5071412;28;20036;-72
2022/03/10 05:57:24;;;;;;;3.22;2.20;;;24.20;23.90;;;;;;5071286;28;20127;-73
2022/03/10 05:59:50;;;;;;;2.75;2.50;;;24.30;23.80;;;;;;5071294;28;20132;-73
2022/03/10 06:02:19;;;;;;;4.50;2.40;;;24.30;23.80;;;;;;5070984;28;20036;-72
2022/03/10 06:04:45;;;;;;;2.78;2.30;;;24.40;23.80;;;;;;5071144;28;20115;-72
2022/03/10 06:07:11;;;;;;;2.65;2.42;;;24.40;23.70;;;;;;5070755;28;20106;-73
2022/03/10 06:09:37;;;;;;;2.20;2.00;;;24.50;23.70;;;;;;5070992;28;20072;-73
2022/03/10 06:12:03;;;;;;;3.10;2.55;;;24.60;23.70;;;;;;5071875;28;20129;-72
2022/03/10 06:14:29;;;;;;;2.35;2.15;;;24.60;23.60;;;;;;5072354;28;20387;-72
2022/03/10 06:16:55;;;;;;;2.78;2.58;;;24.60;23.50;;;;;;5072512;28;20041;-72
2022/03/10 06:19:21;;;;;;;3.17;2.53;;;24.70;23.50;;;;;;5071290;28;20068;-72
2022/03/10 06:21:47;;;;;;;2.28;1.88;;;24.70;23.50;;;;;;5069644;28;20640;-70
2022/03/10 06:24:14;;;;;;;3.45;1.95;;;24.70;24.00;;;;;;5071827;28;20399;-70
2022/03/10 06:26:40;;;;;;;3.38;2.13;;;24.70;24.50;;;;;;5070999;28;20044;-70
2022/03/10 06:29:07;;;;;;;2.90;2.47;;;24.50;24.80;;;;;;5070674;28;20484;-75
2022/03/10 06:31:35;;;;;;;4.22;2.42;;;24.30;25.10;;;;;;5068355;28;20040;-70
2022/03/10 06:34:01;;;;;;;3.38;2.88;;;24.10;25.10;;;;;;5071106;28;20094;-72
2022/03/10 06:36:27;;;;;;;3.80;2.97;;;23.80;25.30;;;;;;5070433;28;20482;-74
2022/03/10 06:38:54;;;;;;;2.83;2.55;;;23.60;25.50;;;;;;5069213;28;20071;-75
2022/03/10 06:41:20;;;;;;;3.03;2.60;;;23.30;25.70;;;;;;5086396;28;20049;-74
2022/03/10 06:43:46;;;;;;;3.13;2.83;;;23.10;25.90;;;;;;5069256;28;20068;-72
2022/03/10 06:46:11;;;;;;;4.13;3.38;;;22.80;26.10;;;;;;5069167;28;20085;-71
2022/03/10 06:48:37;;;;;;;3.55;2.95;;;22.60;26.20;;;;;;5069763;28;20024;-74
2022/03/10 06:51:04;;;;;;;3.42;2.70;;;22.40;26.30;;;;;;5069773;28;20479;-68
2022/03/10 06:53:29;;;;;;;3.97;3.67;;;22.20;26.40;;;;;;5069216;28;20427;-72
2022/03/10 06:55:55;;;;;;;3.63;2.95;;;22.10;26.60;;;;;;5069716;28;20039;-77
2022/03/10 06:58:21;;;;;;;3.78;2.90;;;22.00;26.80;;;;;;5070158;28;20551;-73
2022/03/10 07:00:49;;;;;;;3.35;3.05;;;22.00;26.80;;;;;;5066844;28;20049;-72
2022/03/10 07:03:15;;;;;;;14.00;5.55;;;22.00;26.90;;;;;;5070458;28;20044;-73
2022/03/10 07:05:44;;;;;;;8.98;3.92;;;22.00;27.00;;;;;;5054772;28;20043;-73
2022/03/10 07:08:11;;;;;;;8.65;3.88;;;21.90;27.00;;;;;;5043856;28;21007;-74
2022/03/10 07:10:40;;;;;;;8.30;4.60;;;22.00;27.00;;;;;;5051933;28;20047;-73
2022/03/10 07:13:08;;;;;;;5.00;3.83;;;22.00;26.80;;;;;;5052406;28;20048;-73
2022/03/10 07:15:35;;;;;;;4.25;2.80;;;22.00;26.70;;;;;;5051105;28;20105;-73
2022/03/10 07:18:01;;;;;;;10.35;5.72;;;22.00;27.20;;;;;;5057654;28;20101;-71
2022/03/10 07:20:26;;;;;;;8.07;6.10;;;22.10;26.90;;;;;;5058988;28;20115;-71
2022/03/10 07:22:52;;;;;;;6.20;5.13;;;22.00;26.20;;;;;;5059139;28;20041;-70
2022/03/10 07:25:20;;;;;;;8.35;5.63;;;22.00;26.20;;;;;;5058390;28;20408;-74
2022/03/10 07:27:45;;;;;;;7.10;6.03;;;22.00;26.40;;;;;;5063356;28;20055;-74
2022/03/10 07:30:12;;;;;;;8.27;7.50;;;21.90;26.00;;;;;;5052707;28;20036;-71
2022/03/10 07:32:38;;;;;;;7.65;6.95;;;21.90;25.50;;;;;;5067518;28;20453;-72
2022/03/10 07:35:07;;;;;;;10.35;7.47;;;21.80;25.10;;;;;;5049352;28;20068;-71
2022/03/10 07:37:32;;;;;;;8.55;7.22;;;21.70;25.10;;;;;;5051431;28;20567;-71
2022/03/10 07:39:58;;;;;;;7.55;6.70;;;21.60;25.10;;;;;;5048884;28;20047;-71
2022/03/10 07:42:24;;;;;;;11.85;6.63;;;21.50;25.10;;;;;;5053739;28;20044;-71
2022/03/10 07:44:49;;;;;;;8.70;6.30;;;21.50;25.40;;;;;;5048244;28;20029;-72
2022/03/10 07:47:15;;;;;;;5.72;5.22;;;21.50;25.70;;;;;;5051532;28;20072;-73
2022/03/10 07:49:49;;;;;;;6.72;6.13;;;21.50;25.80;;;;;;5060426;28;20037;-75
2022/03/10 07:52:15;;;;;;;6.18;5.38;;;21.50;25.80;;;;;;5051492;28;20079;-73
2022/03/10 07:54:41;;;;;;;7.10;4.78;;;21.60;26.20;;;;;;5045937;28;20033;-71
2022/03/10 07:57:07;;;;;;;9.30;5.47;;;21.60;26.60;;;;;;5061844;28;20479;-72
2022/03/10 07:59:33;;;;;;;7.68;4.97;;;21.70;26.90;;;;;;5048650;28;20104;-71
2022/03/10 08:01:58;;;;;;;6.55;4.55;;;21.90;27.20;;;;;;5050830;28;20033;-73
2022/03/10 08:04:24;;;;;;;6.93;3.80;;;22.10;27.50;;;;;;5051547;28;20686;-75
2022/03/10 08:06:50;;;;;;;5.10;3.47;;;22.30;27.50;;;;;;5068708;28;20041;-77
2022/03/10 08:09:16;;;;;;;5.60;3.65;;;22.40;27.30;;;;;;5066650;28;20532;-72
2022/03/10 08:11:41;;;;;;;6.15;3.05;;;22.50;27.40;;;;;;5054631;28;20091;-72
2022/03/10 08:14:10;;;;;;;5.93;3.08;;;22.70;27.30;;;;;;5070224;28;20413;-72
2022/03/10 08:16:35;;;;;;;4.15;2.95;;;22.70;27.30;;;;;;5048310;28;20048;-74
2022/03/10 08:19:01;;;;;;;5.03;2.70;;;22.80;27.20;;;;;;5053536;28;20029;-76
2022/03/10 08:21:27;;;;;;;6.88;2.80;;;22.80;27.20;;;;;;5053103;28;20095;-70
2022/03/10 08:23:53;;;;;;;4.35;2.70;;;22.70;27.10;;;;;;5048412;28;20047;-71
2022/03/10 08:26:19;;;;;;;3.95;3.00;;;22.60;27.10;;;;;;5071279;28;20036;-72
2022/03/10 08:28:51;;;;;;;4.65;2.65;;;22.50;27.20;;;;;;5053914;28;20052;-72
2022/03/10 08:31:18;;;;;;;4.85;2.45;;;22.40;27.20;;;;;;5055739;28;20040;-70
2022/03/10 08:33:43;;;;;;;3.47;2.97;;;22.30;27.40;;;;;;5056121;28;20052;-74
2022/03/10 08:36:09;;;;;;;3.28;2.17;;;22.20;27.60;;;;;;5069579;28;20048;-73
2022/03/10 08:38:35;;;;;;;3.35;2.45;;;22.10;27.70;;;;;;5055212;28;20119;-71
2022/03/10 08:41:01;;;;;;;3.55;3.00;;;22.00;27.90;;;;;;5060378;28;20044;-73
2022/03/10 08:43:29;;;;;;;4.00;2.70;;;21.90;28.00;;;;;;5056843;28;20071;-73
2022/03/10 08:45:56;;;;;;;3.53;2.42;;;21.80;28.20;;;;;;5068866;28;20044;-70
2022/03/10 08:48:22;;;;;;;5.05;2.80;;;21.80;28.40;;;;;;5056467;28;20395;-73
2022/03/10 08:50:50;;;;;;;4.70;2.58;;;21.60;28.50;;;;;;5056286;28;20045;-71
2022/03/10 08:53:16;;;;;;;5.07;2.58;;;21.60;28.60;;;;;;5059078;28;20095;-74
2022/03/10 08:55:42;;;;;;;4.20;2.90;;;21.50;28.70;;;;;;5054135;28;20115;-70
2022/03/10 08:58:08;;;;;;;4.10;2.38;;;21.50;28.90;;;;;;5053798;28;20112;-72
2022/03/10 09:00:34;;;;;;;4.20;2.58;;;21.50;28.90;;;;;;5053652;28;20048;-73
2022/03/10 09:03:00;;;;;;;2.15;1.77;;;21.60;29.10;;;;;;5070580;28;20064;-75
2022/03/10 09:05:26;;;;;;;2.90;2.33;;;21.60;29.10;;;;;;5051484;28;20132;-74
2022/03/10 09:07:55;;;;;;;4.57;2.15;;;21.70;29.10;;;;;;5071086;28;20979;-73
2022/03/10 09:10:23;;;;;;;2.97;1.92;;;21.70;29.20;;;;;;5054343;28;20051;-74
2022/03/10 09:12:49;;;;;;;4.32;2.78;;;21.70;29.20;;;;;;5053508;28;20046;-73
2022/03/10 09:15:16;;;;;;;2.95;1.50;;;21.70;29.20;;;;;;5054642;28;20369;-72
2022/03/10 09:17:42;;;;;;;2.42;1.63;;;21.70;29.20;;;;;;5056924;28;20039;-75
2022/03/10 09:20:08;;;;;;;2.47;1.70;;;21.80;29.20;;;;;;5053807;28;20473;-69
2022/03/10 09:22:34;;;;;;;2.20;1.85;;;21.70;29.30;;;;;;5051752;28;20033;-70
2022/03/10 09:25:02;;;;;;;3.00;1.83;;;21.70;29.40;;;;;;5052957;28;20796;-72
2022/03/10 09:27:31;;;;;;;3.20;1.65;;;21.60;29.40;;;;;;5054327;28;20041;-73
2022/03/10 09:29:57;;;;;;;3.05;2.15;;;21.60;29.50;;;;;;5054015;28;20111;-72
2022/03/10 09:32:23;;;;;;;5.13;2.40;;;21.60;29.50;;;;;;5055692;28;20123;-75
2022/03/10 09:34:52;;;;;;;1.92;1.58;;;21.50;29.60;;;;;;5053429;28;20041;-67
2022/03/10 09:37:17;;;;;;;3.65;2.70;;;21.50;29.60;;;;;;5055092;28;20033;-70
2022/03/10 09:39:46;;;;;;;6.63;2.38;;;21.40;29.40;;;;;;5053041;28;20056;-70
2022/03/10 09:42:15;;;;;;;7.15;3.28;;;21.40;29.40;;;;;;5073363;28;20093;-68
2022/03/10 09:44:43;;;;;;;7.07;4.60;;;21.30;29.30;;;;;;5055413;28;20049;-68
2022/03/10 09:47:08;;;;;;;5.05;4.00;;;21.20;29.00;;;;;;5049902;28;20098;-67
2022/03/10 09:49:34;;;;;;;6.75;3.55;;;21.10;29.00;;;;;;5053004;28;20453;-74
2022/03/10 09:52:01;;;;;;;5.57;3.30;;;21.00;29.10;;;;;;5053291;28;20106;-76
2022/03/10 09:54:26;;;;;;;5.47;3.72;;;20.90;29.20;;;;;;5052144;28;20094;-73
2022/03/10 09:56:55;;;;;;;6.50;3.65;;;20.90;29.40;;;;;;5052403;28;20051;-74
2022/03/10 09:59:22;;;;;;;9.15;3.05;;;20.90;29.60;;;;;;5056623;28;20074;-74
2022/03/10 10:01:48;;;;;;;3.95;3.08;;;20.80;29.80;;;;;;5054483;28;20037;-76
2022/03/10 10:04:14;;;;;;;7.10;2.85;;;20.80;29.90;;;;;;5051004;28;20087;-74
2022/03/10 10:07:04;;;;;;;5.35;3.10;;;20.70;30.00;;;;;;5049310;28;20086;-72
2022/03/10 10:09:48;;;;;;;4.38;2.72;;;20.70;30.20;;;;;;5060983;28;20064;-70
2022/03/10 10:12:15;;;;;;;3.60;2.28;;;20.60;30.20;;;;;;5053786;28;20056;-71
2022/03/10 10:14:44;;;;;;;4.85;2.58;;;20.50;30.30;;;;;;5055522;28;20039;-73
2022/03/10 10:17:11;;;;;;;5.85;1.83;;;20.50;30.50;;;;;;5054910;28;20106;-71
2022/03/10 10:19:38;;;;;;;5.07;2.53;;;20.50;30.60;;;;;;5044733;28;20056;-72
2022/03/10 10:22:20;;;;;;;3.53;2.83;;;20.50;30.50;;;;;;5049504;28;20053;-71
2022/03/10 10:24:51;;;;;;;5.32;2.53;;;20.50;30.60;;;;;;5049631;28;20047;-70
2022/03/10 10:27:19;;;;;;;4.68;3.28;;;20.50;30.70;;;;;;5054132;28;20064;-71
2022/03/10 10:29:53;;;;;;;6.65;4.22;;;20.50;30.60;;;;;;5060234;28;20095;-71
2022/03/10 10:35:22;;;;;;;5.72;4.05;;;20.50;30.50;;;;;;5064159;27;20417;-75
2022/03/10 10:37:50;;;;;;;6.57;3.78;;;20.50;30.40;;;;;;5074588;28;20066;-68
2022/03/10 10:40:22;;;;;;;6.90;3.53;;;20.50;30.40;;;;;;5043641;28;20396;-72
2022/03/10 10:42:47;;;;;;;6.60;3.42;;;20.50;30.50;;;;;;5042778;28;20041;-74
2022/03/10 10:45:35;;;;;;;7.32;3.90;;;20.60;30.50;;;;;;5040750;28;20404;-77
2022/03/10 10:48:04;;;;;;;5.28;3.40;;;20.60;30.50;;;;;;5045504;28;20183;-76
2022/03/10 10:50:32;;;;;;;3.85;3.20;;;20.60;30.40;;;;;;5047881;28;20045;-74
2022/03/10 10:52:58;;;;;;;4.97;3.55;;;20.70;30.40;;;;;;5076613;28;20044;-71
2022/03/10 10:55:32;;;;;;;4.03;2.60;;;20.70;30.30;;;;;;5027252;28;20685;-74
2022/03/10 10:58:13;;;;;;;6.93;4.90;;;20.80;30.30;;;;;;5031570;28;20095;-77
2022/03/10 11:00:41;;;;;;;7.97;3.65;;;20.70;30.00;;;;;;5059950;28;20049;-76
2022/03/10 11:03:20;;;;;;;5.43;4.05;;;20.80;30.00;;;;;;5072205;28;20183;-74
2022/03/10 11:05:47;;;;;;;5.63;3.75;;;20.80;30.00;;;;;;5069998;28;20146;-71
2022/03/10 11:08:15;;;;;;;4.93;3.90;;;20.80;30.00;;;;;;5076273;28;20040;-72
2022/03/10 11:10:41;;;;;;;5.30;3.55;;;20.80;30.00;;;;;;5073948;28;20090;-74
2022/03/10 11:13:06;;;;;;;4.10;3.33;;;20.80;30.00;;;;;;5071652;28;20048;-66
2022/03/10 11:15:32;;;;;;;4.13;2.47;;;20.80;30.00;;;;;;5030403;28;20057;-71
2022/03/10 11:17:59;;;;;;;3.90;2.90;;;20.80;30.10;;;;;;5073757;28;20047;-71
2022/03/10 11:20:28;;;;;;;5.35;3.78;;;20.80;30.30;;;;;;5042410;28;20044;-74
2022/03/10 11:28:45;;;;;;;7.75;3.83;;;20.80;30.60;;;;;;5114364;27;20410;-70
2022/03/10 11:31:12;;;;;;;8.70;3.63;;;20.80;30.60;;;;;;5097561;28;20100;-75
2022/03/10 11:33:38;;;;;;;6.32;3.03;;;20.80;30.70;;;;;;5099068;28;20039;-74
2022/03/10 11:36:26;;;;;;;7.88;3.17;;;20.80;30.90;;;;;;5097336;28;20539;-76
2022/03/10 11:39:05;;;;;;;4.93;3.28;;;20.80;31.10;;;;;;5101652;28;20039;-71
2022/03/10 11:41:48;;;;;;;5.03;4.50;;;20.80;31.20;;;;;;5116242;27;20102;-71
2022/03/10 11:44:19;;;;;;;8.30;5.35;;;20.80;30.90;;;;;;5105226;27;20054;-73
2022/03/10 11:49:39;;;;;;;10.38;5.32;;;20.70;30.90;;;;;;5057147;28;20601;-73
2022/03/10 11:52:21;;;;;;;7.80;5.28;;;20.70;31.00;;;;;;5054818;28;20578;-74
2022/03/10 11:55:06;;;;;;;7.43;4.75;;;20.60;31.00;;;;;;5062341;28;20068;-72
2022/03/10 11:57:42;;;;;;;7.43;4.80;;;20.60;31.10;;;;;;5051892;28;20401;-72
2022/03/10 12:00:08;;;;;;;6.30;4.18;;;20.50;31.20;;;;;;5046520;28;20568;-71
2022/03/10 12:02:40;;;;;;;6.28;4.68;;;20.50;31.30;;;;;;5051666;28;20053;-74
2022/03/10 12:05:07;;;;;;;7.25;4.88;;;20.50;31.30;;;;;;5048162;28;20036;-76
2022/03/10 12:07:34;;;;;;;5.18;4.60;;;20.50;31.20;;;;;;5049195;28;20702;-73
2022/03/10 12:10:06;;;;;;;5.18;3.95;;;20.50;31.10;;;;;;5048855;28;20086;-71
2022/03/10 12:12:37;;;;;;;8.15;4.00;;;20.50;31.20;;;;;;5052930;28;20047;-74
2022/03/10 12:18:18;;;;;;;9.43;4.80;;;20.50;31.20;;;;;;5090745;27;20414;-72
2022/03/10 12:20:45;;;;;;;6.63;3.80;;;20.70;31.10;;;;;;5063422;28;20052;-71
2022/03/10 12:23:13;;;;;;;5.03;3.13;;;20.70;30.90;;;;;;5088022;28;20051;-71
2022/03/10 12:25:42;;;;;;;7.35;3.63;;;20.80;30.90;;;;;;5106068;27;20040;-70
2022/03/10 12:28:10;;;;;;;5.10;3.42;;;20.90;30.90;;;;;;5073521;28;20043;-70
2022/03/10 12:30:41;;;;;;;5.18;2.92;;;21.00;30.80;;;;;;5106204;27;20694;-72
2022/03/10 12:33:08;;;;;;;5.85;3.15;;;21.10;30.80;;;;;;5085491;28;20044;-70
2022/03/10 12:35:36;;;;;;;3.75;3.15;;;21.20;30.70;;;;;;5073289;28;20049;-70
2022/03/10 12:38:02;;;;;;;4.75;2.63;;;21.30;30.60;;;;;;5070863;28;20041;-70
2022/03/10 12:40:30;;;;;;;5.93;3.75;;;21.40;30.60;;;;;;5073008;28;20033;-71
2022/03/10 12:43:05;;;;;;;5.78;3.38;;;21.40;30.30;;;;;;5109181;27;20076;-70
2022/03/10 12:45:32;;;;;;;4.07;2.78;;;21.40;30.20;;;;;;5073430;28;20032;-71
2022/03/10 12:48:08;;;;;;;6.35;3.47;;;21.50;30.20;;;;;;5070956;28;20045;-65
2022/03/10 12:50:36;;;;;;;8.90;4.95;;;21.50;30.00;;;;;;5073618;28;20044;-73
2022/03/10 12:53:11;;;;;;;5.75;3.67;;;21.50;30.00;;;;;;5084919;28;20374;-70
2022/03/10 12:55:37;;;;;;;7.97;3.67;;;21.50;30.10;;;;;;5088074;28;20102;-75
2022/03/10 12:58:02;;;;;;;5.88;3.67;;;21.60;30.40;;;;;;5073741;28;20054;-76
2022/03/10 13:00:28;;;;;;;6.68;3.22;;;21.60;30.70;;;;;;5074233;28;20043;-78
2022/03/10 13:02:58;;;;;;;4.38;3.17;;;21.70;30.80;;;;;;5074212;28;20036;-73
2022/03/10 13:05:24;;;;;;;4.90;3.33;;;21.70;31.00;;;;;;5108051;27;20079;-74
2022/03/10 13:07:50;;;;;;;6.07;3.00;;;21.70;31.00;;;;;;5106511;27;20098;-72